x

Diamond Shoals (41025) Wave Buoy

10:50am - Fri 3rd Jul 2015 All times are EDT. -4 hours from GMT.

  • Sig Wave height 4.9ft
  • Swell Direction
  • Peak Period 7s
  • Average Period 5s
  • Wind
    18mph, 22mph gusts
  • Sea Temp 82°f
  • 空気 Temp 76°f
  • Sea Pressure 1015.3mb
  • Diamond Shoals
  • Diamond Shoals

More Historic Weather Station data

Upgrade to MSW Pro to gain access to the past 30 days of data for over 8000 Wavebouys and Weather Stations around the globe.

Join Pro

Comparision Forecast

View Surf forecast
   
Fri 07/03 10:50am 5ft 7s 5s 18 22 mph 1015.3mb 82f 76f
9:50am 5.5ft 7s 5s 18 20 mph 1015.1mb 83f 77f
8:50am 5.5ft 7s 5s 16 20 mph 1014.9mb 83f 77f
7:50am 6ft 8s 5s 18 20 mph 1014.7mb 83f 78f
6:50am 6ft 7s 5s 22 25 mph 1013.8mb 83f 78f
5:50am 6.5ft 7s 6s 18 20 mph 1012.8mb 83f 78f
4:50am 7ft 7s 6s 16 20 mph 1012.4mb 82f 79f
3:50am 7.5ft 7s 6s 13 16 mph 1012mb 82f 79f
2:50am 8.5ft 7s 6s 25 29 mph 1011.9mb 83f 80f
1:50am 8ft 7s 5s 31 40 mph 1011.8mb 83f 81f
12:50am 8ft 7s 5s 29 38 mph 1012.5mb 83f 82f
Thu 07/02 11:50pm 7.5ft 7s 5s 31 36 mph 1012.6mb 82f 82f
10:50pm 8ft 6s 5s 31 40 mph 1012.1mb 83f 82f
9:50pm 7ft 6s 5s 31 38 mph 1011.6mb 83f 83f
8:50pm 6.5ft 6s 5s 29 34 mph 1011.7mb 83f 83f
7:50pm 6ft 6s 5s 27 34 mph 1011.5mb 83f 83f
6:50pm 5.5ft 6s 5s 29 34 mph 1011.7mb 83f 83f
5:50pm 5ft 5s 4s 27 34 mph 1011.7mb 83f 82f
4:50pm 5ft 5s 4s 27 31 mph 1012.3mb 83f 82f
3:50pm 4.5ft 4s 4s 25 29 mph 1012.8mb 83f 82f
2:50pm 4.5ft 6s 4s 25 27 mph 1013.3mb 83f 82f
1:50pm 4ft 7s 4s 22 27 mph 1013.7mb 83f 82f
12:50pm 4ft 8s 5s 20 22 mph 1014mb 83f 82f
11:50am 4ft 6s 5s 18 20 mph 1014.2mb 83f 81f
10:50am 4ft 7s 4s 18 20 mph 1014.2mb 83f 81f
9:50am 4.5ft 6s 5s 20 22 mph 1014.5mb 83f 81f
8:50am 4ft 7s 5s 20 25 mph 1014.3mb 83f 81f
7:50am 4ft 8s 5s 18 22 mph 1013.8mb 83f 81f
6:50am 4.5ft 7s 5s 20 22 mph 1013.4mb 83f 81f
5:50am 4.5ft 7s 5s 18 22 mph 1013.5mb 83f 81f
4:50am 4.5ft 5s 5s 18 22 mph 1013.7mb 82f 80f
3:50am 5ft 6s 5s 16 18 mph 1013.8mb 82f 80f
2:50am 4.5ft 8s 5s 18 20 mph 1014.2mb 82f 80f
1:50am 5ft 6s 5s 20 22 mph 1014.2mb 82f 80f
12:50am 5ft 8s 5s 20 22 mph 1014.4mb 82f 80f
Wed 07/01 11:50pm 5ft 8s 5s 20 25 mph 1014.4mb 83f 80f
10:50pm 5ft 8s 5s 22 25 mph 1014.6mb 83f 80f
9:50pm 5ft 8s 5s 22 25 mph 1014.2mb 83f 80f
8:50pm 4.5ft 7s 5s 20 22 mph 1013.9mb 83f 80f
7:50pm 4.5ft 6s 5s 20 22 mph 1013.4mb 83f 81f
6:50pm 4.5ft 8s 5s 20 25 mph 1013.3mb 83f 81f
5:50pm 4.5ft 6s 5s 20 25 mph 1013.3mb 83f 81f
4:50pm 5ft 8s 5s 22 25 mph 1013.6mb 83f 80f
3:50pm 4.5ft 6s 5s 22 25 mph 1013.7mb 83f 81f
2:50pm 5ft 8s 5s 22 25 mph 1014.3mb 83f 80f
1:50pm 5ft 6s 5s 22 25 mph 1014.4mb 83f 80f
12:50pm 5ft 6s 5s 22 25 mph 1014.5mb 83f 80f
11:50am 5ft 6s 5s 22 27 mph 1014.7mb 82f 80f
10:50am 5ft 6s 5s 25 29 mph 1014.5mb 82f 80f
9:50am 5ft 6s 5s 22 25 mph 1014.3mb 82f 81f
8:50am 5.5ft 6s 5s 20 25 mph 1014mb 82f 80f
7:50am 5.5ft 6s 5s 18 22 mph 1013.9mb 82f 81f
6:50am 6ft 6s 5s 18 25 mph 1014.1mb 82f 77f
5:50am 6ft 5s 5s 22 27 mph 1013.6mb 82f 82f
4:50am 6ft 6s 5s 25 31 mph 1014mb 82f 82f
3:50am 6ft 6s 5s 27 31 mph 1013.5mb 82f 82f
2:50am 6ft 6s 5s 22 27 mph 1013.4mb 82f 82f
1:50am 6ft 6s 5s 27 31 mph 1013.7mb 82f 82f
12:50am 6ft 6s 5s 27 34 mph 1014.3mb 82f 82f
Tue 06/30 11:50pm 5ft 6s 5s 27 34 mph 1014.5mb 82f 82f
10:50pm 5ft 5s 5s 27 29 mph 1014.5mb 82f 83f
9:50pm 5ft 5s 4s 27 31 mph 1014.3mb 82f 83f
8:50pm 4.5ft 4s 4s 27 31 mph 1013.4mb 82f 82f
7:50pm 4ft 7s 4s 25 29 mph 1013.4mb 82f 83f
6:50pm 3.5ft 8s 4s 22 27 mph 1013.1mb 82f 82f
5:50pm 3.5ft 7s 5s 20 25 mph 1013.2mb 82f 82f
4:50pm 3.5ft 7s 5s 20 22 mph 1013.6mb 83f 82f
3:50pm 3.5ft 7s 5s 18 20 mph 1014.2mb 83f 83f
2:50pm 3.5ft 8s 6s 16 20 mph 1014.9mb 83f 82f
1:50pm 3.5ft 8s 6s 13 16 mph 1015.3mb 83f 82f
12:50pm 3ft 7s 6s 13 16 mph 1015.6mb 83f 81f
11:50am 3ft 8s 5s 11 13 mph 1015.9mb 82f 81f
10:50am 3ft 8s 5s 11 13 mph 1015.9mb 82f 80f
9:50am 3.5ft 7s 6s 11
mph
1015.9mb 82f 80f
8:50am 3ft 7s 5s 11 13 mph 1015.9mb 81f 80f
7:50am 3.5ft 8s 5s 11 13 mph 1015.6mb 81f 80f
6:50am 3.5ft 8s 5s 11 13 mph 1015.1mb 80f 80f
5:50am 3.5ft 7s 5s 11 13 mph 1014.6mb 80f 79f
4:50am 3.5ft 7s 5s 11 13 mph 1014.6mb 80f 79f
3:50am 3.5ft 8s 5s 11
mph
1014.2mb 80f 79f
2:50am 3.5ft 8s 5s 11 13 mph 1014.2mb 80f 79f
1:50am 3.5ft 8s 5s 11 13 mph 1014.7mb 80f 79f
12:50am 3.5ft 8s 5s 13 16 mph 1015.2mb 80f 79f
Mon 06/29 11:50pm 3.5ft 8s 5s 11 13 mph 1015.3mb 80f 80f
10:50pm 3.5ft 8s 5s 9 11 mph 1015.3mb 80f 80f
9:50pm 3.5ft 8s 5s 7 11 mph 1014.8mb 80f 79f
8:50pm 4ft 7s 5s 7 9 mph 1014.3mb 81f 79f
7:50pm 4ft 6s 5s 7 9 mph 1014.3mb 81f 79f
6:50pm 4ft 8s 5s 4 9 mph 1014.2mb 81f 79f
5:50pm 3.5ft 8s 5s 4 7 mph 1014.1mb 81f 80f
4:50pm 4ft 8s 5s 9 11 mph 1014mb 81f 80f